Time;durP1;ratioP1;P1;durP2;ratioP2;P2;SDS_P1;SDS_P2;PMS_P1;PMS_P2;Temp;Humidity;BMP_temperature;BMP_pressure;BME280_temperature;BME280_humidity;BME280_pressure;Samples;Min_cycle;Max_cycle;Signal;HPM_P1;HPM_P2
2022/12/13 00:00:09;;;;;;;55.80;31.90;;;10.00;92.20;;;;;;5034719;28;20049;-70
2022/12/13 00:03:17;;;;;;;55.45;33.08;;;;;;;;;;5034808;28;20052;-69
2022/12/13 00:06:21;;;;;;;62.28;33.67;;;;;;;;;;5034880;28;20373;-69
2022/12/13 00:09:25;;;;;;;53.28;29.95;;;9.80;92.40;;;;;;5034372;28;20056;-70
2022/12/13 00:12:29;;;;;;;46.63;28.38;;;10.00;92.60;;;;;;5033858;28;20048;-70
2022/12/13 00:15:34;;;;;;;48.22;28.00;;;;;;;;;;5034345;28;20044;-70
2022/12/13 00:18:38;;;;;;;45.78;27.30;;;9.90;92.80;;;;;;5034639;28;20044;-69
2022/12/13 00:21:42;;;;;;;46.20;26.13;;;10.40;92.60;;;;;;5034144;28;20044;-69
2022/12/13 00:24:46;;;;;;;38.88;23.20;;;10.00;92.70;;;;;;5034500;28;20049;-69
2022/12/13 00:27:50;;;;;;;40.88;23.13;;;10.50;92.60;;;;;;5034164;28;20508;-69
2022/12/13 00:30:59;;;;;;;38.15;22.85;;;12.30;92.70;;;;;;5034022;28;20064;-70
2022/12/13 00:34:03;;;;;;;39.50;23.55;;;;;;;;;;5034345;28;20381;-70
2022/12/13 00:37:07;;;;;;;42.00;23.60;;;7.90;91.60;;;;;;5033871;28;20052;-69
2022/12/13 00:40:11;;;;;;;38.38;21.95;;;10.40;92.70;;;;;;5033777;28;20388;-68
2022/12/13 00:43:15;;;;;;;42.28;20.15;;;;;;;;;;5044739;28;20052;-69
2022/12/13 00:46:23;;;;;;;32.55;18.98;;;9.50;93.00;;;;;;5033968;28;20036;-69
2022/12/13 00:49:27;;;;;;;37.38;19.38;;;;;;;;;;5033562;28;20512;-70
2022/12/13 00:52:33;;;;;;;35.53;19.80;;;;;;;;;;5033244;28;20052;-69
2022/12/13 00:55:40;;;;;;;32.72;16.58;;;9.80;92.60;;;;;;5033461;28;20060;-69
2022/12/13 00:58:45;;;;;;;28.98;16.42;;;;;;;;;;5034216;28;20048;-69
2022/12/13 01:01:49;;;;;;;35.42;16.10;;;;;;;;;;5033657;28;20045;-69
2022/12/13 01:04:53;;;;;;;27.40;15.15;;;;;;;;;;5033622;28;20044;-69
2022/12/13 01:07:58;;;;;;;29.02;14.80;;;;;;;;;;5044082;28;20040;-68
2022/12/13 01:11:03;;;;;;;22.20;12.60;;;10.00;91.70;;;;;;5032555;28;20056;-69
2022/12/13 01:14:07;;;;;;;24.60;13.00;;;;;;;;;;5033322;28;20060;-69
2022/12/13 01:17:12;;;;;;;26.80;13.57;;;;;;;;;;5033406;28;20056;-69
2022/12/13 01:20:16;;;;;;;27.25;13.50;;;;;;;;;;5033398;28;20045;-69
2022/12/13 01:23:20;;;;;;;24.13;13.52;;;11.10;93.30;;;;;;5033138;28;20044;-69
2022/12/13 01:26:24;;;;;;;23.23;12.85;;;;;;;;;;5032438;28;20064;-69
2022/12/13 01:29:28;;;;;;;23.98;11.40;;;10.10;93.80;;;;;;5033108;28;20068;-68
2022/12/13 01:32:32;;;;;;;20.63;10.88;;;;;;;;;;5032097;28;20044;-69
2022/12/13 01:35:36;;;;;;;27.23;12.02;;;10.20;93.80;;;;;;5032928;28;20041;-69
2022/12/13 01:38:41;;;;;;;22.92;11.32;;;;;;;;;;5032902;28;20040;-69
2022/12/13 01:41:48;;;;;;;20.67;12.15;;;9.70;93.70;;;;;;5032893;28;20052;-70
2022/12/13 01:44:55;;;;;;;20.80;11.77;;;;;;;;;;5032914;28;20045;-70
2022/12/13 01:48:06;;;;;;;24.88;11.07;;;10.30;93.90;;;;;;5032626;28;20504;-69
2022/12/13 01:51:14;;;;;;;17.33;10.50;;;10.40;93.80;;;;;;5032511;28;20508;-69
2022/12/13 01:54:24;;;;;;;18.93;9.97;;;;;;;;;;5032204;28;20053;-69
2022/12/13 01:57:28;;;;;;;18.27;10.55;;;10.20;94.00;;;;;;5032562;28;20788;-69
2022/12/13 02:00:34;;;;;;;17.80;9.20;;;10.30;94.30;;;;;;5032641;28;20040;-69
2022/12/13 02:03:38;;;;;;;22.38;10.55;;;10.60;94.50;;;;;;5032349;28;20048;-69
2022/12/13 02:06:45;;;;;;;19.65;9.52;;;10.60;94.80;;;;;;5043204;28;20045;-69
2022/12/13 02:09:49;;;;;;;20.45;11.10;;;;;;;;;;5032084;28;20056;-69
2022/12/13 02:12:53;;;;;;;20.02;9.02;;;11.80;95.30;;;;;;5032211;28;20048;-69
2022/12/13 02:16:17;;;;;;;20.33;9.27;;;12.00;95.50;;;;;;5032096;28;20044;-69
2022/12/13 02:20:05;;;;;;;18.30;9.65;;;10.70;95.70;;;;;;5031085;28;20048;-69
2022/12/13 02:23:23;;;;;;;22.65;9.38;;;10.50;95.90;;;;;;5027793;28;20044;-70
2022/12/13 02:26:27;;;;;;;18.95;9.85;;;;;;;;;;5032030;28;20049;-69
2022/12/13 02:29:53;;;;;;;19.63;10.35;;;11.70;96.90;;;;;;5031662;28;20041;-69
2022/12/13 02:33:12;;;;;;;17.85;10.65;;;10.40;96.90;;;;;;5042282;28;20524;-69
2022/12/13 02:36:24;;;;;;;18.10;11.23;;;10.20;97.10;;;;;;5031824;28;20048;-69
2022/12/13 02:39:35;;;;;;;19.17;10.50;;;10.30;97.40;;;;;;5031958;28;20064;-69
2022/12/13 02:42:54;;;;;;;18.63;10.13;;;10.40;97.80;;;;;;5031769;28;20423;-69
2022/12/13 02:46:01;;;;;;;19.85;9.60;;;11.30;97.80;;;;;;5031646;28;20040;-69
2022/12/13 02:49:07;;;;;;;16.40;9.60;;;10.40;97.50;;;;;;5031765;28;20052;-69
2022/12/13 02:52:14;;;;;;;15.73;9.98;;;10.40;97.80;;;;;;5042260;28;20531;-69
2022/12/13 02:55:18;;;;;;;16.50;10.02;;;10.40;98.10;;;;;;5031357;28;20303;-69
2022/12/13 02:58:29;;;;;;;17.48;9.40;;;8.90;97.70;;;;;;5031377;28;20060;-69
2022/12/13 03:02:08;;;;;;;14.85;9.18;;;10.20;98.30;;;;;;5031191;28;20044;-69
2022/12/13 03:09:19;;;;;;;15.50;9.57;;;10.30;98.30;;;;;;5031527;28;20299;-69
2022/12/13 03:16:04;;;;;;;15.75;9.45;;;10.40;98.70;;;;;;5031359;28;20048;-69
2022/12/13 03:19:10;;;;;;;18.95;9.10;;;10.10;98.80;;;;;;5031410;28;20140;-69
2022/12/13 03:22:16;;;;;;;24.23;10.43;;;;;;;;;;5031011;28;20397;-70
2022/12/13 03:25:21;;;;;;;15.73;9.77;;;10.20;99.30;;;;;;5030973;28;20048;-68
2022/12/13 03:28:25;;;;;;;17.05;9.43;;;;;;;;;;5031059;28;20052;-69
2022/12/13 03:31:30;;;;;;;23.65;9.52;;;;;;;;;;5029955;28;20045;-69
2022/12/13 03:34:34;;;;;;;15.65;9.05;;;10.60;99.80;;;;;;5031041;28;20311;-70
2022/12/13 03:37:38;;;;;;;16.33;8.90;;;10.10;99.90;;;;;;5031176;28;20048;-68
2022/12/13 03:40:43;;;;;;;15.68;8.65;;;9.90;99.90;;;;;;5030802;28;20040;-69
2022/12/13 03:43:47;;;;;;;18.65;8.65;;;10.10;99.90;;;;;;5031072;28;20056;-70
2022/12/13 03:46:52;;;;;;;19.25;8.43;;;;;;;;;;5030853;28;20040;-69
2022/12/13 03:49:56;;;;;;;16.17;8.40;;;10.20;99.90;;;;;;5030880;28;20049;-69
2022/12/13 03:53:02;;;;;;;15.30;8.77;;;10.20;99.90;;;;;;5030910;28;20049;-69
2022/12/13 03:56:07;;;;;;;13.85;7.55;;;;;;;;;;5030972;28;20048;-69
2022/12/13 03:59:11;;;;;;;12.35;8.00;;;;;;;;;;5031277;28;20048;-69
2022/12/13 04:02:15;;;;;;;15.55;8.10;;;;;;;;;;5030673;28;20444;-69
2022/12/13 04:05:19;;;;;;;11.73;7.13;;;9.90;99.90;;;;;;5030809;28;20038;-69
2022/12/13 04:08:23;;;;;;;18.35;7.47;;;;;;;;;;5030574;28;20048;-69
2022/12/13 04:14:49;;;;;;;18.20;6.43;;;10.30;99.90;;;;;;5030107;28;20045;-68
2022/12/13 04:17:53;;;;;;;15.77;6.85;;;10.40;99.90;;;;;;5030866;28;20200;-69
2022/12/13 04:20:57;;;;;;;10.10;5.72;;;10.30;99.90;;;;;;5030843;28;20035;-69
2022/12/13 04:24:01;;;;;;;10.10;5.78;;;10.40;99.90;;;;;;5030712;28;20045;-69
2022/12/13 04:27:05;;;;;;;13.07;6.80;;;10.50;99.90;;;;;;5030826;28;20057;-68
2022/12/13 04:30:09;;;;;;;12.32;6.43;;;;;;;;;;5034061;28;20056;-69
2022/12/13 04:33:13;;;;;;;7.88;4.78;;;11.30;99.90;;;;;;5034116;28;20033;-69
2022/12/13 04:36:24;;;;;;;9.77;4.82;;;10.30;99.90;;;;;;5034330;28;20044;-68
2022/12/13 04:39:28;;;;;;;11.60;5.82;;;;;;;;;;5034390;28;20045;-70
2022/12/13 04:42:32;;;;;;;9.70;5.95;;;10.20;99.90;;;;;;5034044;28;20037;-69
2022/12/13 04:45:36;;;;;;;15.43;6.88;;;;;;;;;;5033823;28;20044;-69
2022/12/13 04:48:40;;;;;;;16.15;8.13;;;10.10;99.90;;;;;;5033869;28;20045;-69
2022/12/13 04:51:44;;;;;;;23.30;8.55;;;10.00;99.90;;;;;;5033610;28;20056;-69
2022/12/13 04:54:48;;;;;;;17.15;8.85;;;10.10;99.90;;;;;;5033583;28;20405;-68
2022/12/13 04:57:53;;;;;;;16.65;9.35;;;;;;;;;;5033158;28;20047;-69
2022/12/13 05:00:57;;;;;;;15.25;9.23;;;;;;;;;;5033538;28;20488;-69
2022/12/13 05:04:02;;;;;;;17.88;10.25;;;10.10;99.90;;;;;;5033674;28;20120;-69
2022/12/13 05:07:06;;;;;;;16.98;10.07;;;9.90;99.90;;;;;;5033797;28;20397;-69
2022/12/13 05:10:11;;;;;;;17.38;9.38;;;;;;;;;;5033308;28;20076;-69
2022/12/13 05:13:15;;;;;;;15.70;10.05;;;8.60;99.90;;;;;;5033415;28;20049;-69
2022/12/13 05:16:19;;;;;;;16.98;9.35;;;10.50;99.90;;;;;;5043896;28;20061;-69
2022/12/13 05:19:24;;;;;;;12.43;7.07;;;;;;;;;;5033187;28;20040;-69
2022/12/13 05:22:28;;;;;;;12.73;6.47;;;;;;;;;;5033388;28;20050;-69
2022/12/13 05:25:33;;;;;;;13.77;6.70;;;10.00;99.90;;;;;;5033292;28;20037;-69
2022/12/13 05:28:38;;;;;;;9.13;5.70;;;;;;;;;;5032872;28;20045;-69
2022/12/13 05:31:42;;;;;;;11.52;5.70;;;10.30;99.90;;;;;;5032604;28;20045;-68
2022/12/13 05:34:45;;;;;;;7.50;3.97;;;10.40;99.90;;;;;;5033126;28;20064;-69
2022/12/13 05:37:50;;;;;;;10.77;4.70;;;10.30;99.90;;;;;;5033029;28;20116;-69
2022/12/13 05:40:54;;;;;;;8.73;3.90;;;10.30;99.90;;;;;;5032075;28;20393;-70
2022/12/13 05:44:01;;;;;;;8.05;3.40;;;10.40;99.90;;;;;;5033281;28;20483;-69
2022/12/13 05:47:04;;;;;;;7.63;3.10;;;10.60;99.90;;;;;;5032522;28;20049;-69
2022/12/13 05:50:09;;;;;;;8.05;3.90;;;;;;;;;;5032499;28;20068;-69
2022/12/13 05:53:14;;;;;;;8.02;3.03;;;10.50;99.90;;;;;;5032533;28;20034;-69
2022/12/13 05:56:18;;;;;;;9.65;3.03;;;10.60;99.90;;;;;;5032878;28;20052;-68
2022/12/13 05:59:22;;;;;;;9.93;3.50;;;10.50;99.90;;;;;;5032499;28;20048;-68
2022/12/13 06:02:26;;;;;;;7.22;3.40;;;;;;;;;;5032432;28;20052;-69
2022/12/13 06:05:30;;;;;;;6.50;2.90;;;10.70;99.90;;;;;;5043050;28;20041;-69
2022/12/13 06:08:36;;;;;;;7.53;3.33;;;10.50;99.90;;;;;;5032417;28;20440;-69
2022/12/13 06:11:40;;;;;;;10.88;2.85;;;10.60;99.90;;;;;;5032067;28;20168;-69
2022/12/13 06:14:45;;;;;;;9.05;3.20;;;;;;;;;;5032199;28;20062;-69
2022/12/13 06:17:50;;;;;;;5.38;3.10;;;;;;;;;;5031252;28;20041;-69
2022/12/13 06:21:04;;;;;;;14.63;4.28;;;10.50;99.90;;;;;;5032076;28;20037;-69
2022/12/13 06:24:08;;;;;;;7.00;3.60;;;10.90;99.90;;;;;;5032019;28;20049;-69
2022/12/13 06:27:12;;;;;;;10.65;3.00;;;;;;;;;;5032219;28;20417;-70
2022/12/13 06:30:17;;;;;;;5.68;2.67;;;;;;;;;;5031630;28;20049;-70
2022/12/13 06:33:22;;;;;;;7.13;2.92;;;10.10;99.90;;;;;;5031990;28;20041;-70
2022/12/13 06:36:26;;;;;;;7.00;2.50;;;;;;;;;;5032487;28;20092;-69
2022/12/13 06:39:30;;;;;;;5.70;3.00;;;;;;;;;;5042641;28;20485;-68
2022/12/13 06:42:35;;;;;;;7.07;2.50;;;;;;;;;;5031995;28;20045;-69
2022/12/13 06:45:39;;;;;;;9.32;2.78;;;;;;;;;;5031402;28;20038;-69
2022/12/13 06:48:44;;;;;;;11.07;3.50;;;;;;;;;;5031345;28;20284;-68
2022/12/13 06:51:48;;;;;;;8.15;2.80;;;;;;;;;;5031005;28;20041;-69
2022/12/13 06:54:52;;;;;;;4.53;2.30;;;;;;;;;;5031252;28;20045;-68
2022/12/13 06:57:57;;;;;;;12.55;3.47;;;11.60;99.90;;;;;;5031306;28;20041;-68
2022/12/13 07:01:14;;;;;;;10.20;5.03;;;13.30;99.90;;;;;;5031251;28;20496;-68
2022/12/13 07:04:19;;;;;;;14.23;6.47;;;;;;;;;;5031569;28;20520;-68
2022/12/13 07:07:24;;;;;;;13.38;6.78;;;11.40;99.90;;;;;;5031388;28;20052;-68
2022/12/13 07:10:29;;;;;;;13.38;6.63;;;;;;;;;;5030148;28;20056;-68
2022/12/13 07:13:35;;;;;;;12.88;5.97;;;11.90;99.90;;;;;;5031000;28;20041;-68
2022/12/13 07:16:39;;;;;;;14.18;5.95;;;10.90;99.90;;;;;;5031204;28;20049;-68
2022/12/13 07:19:43;;;;;;;11.90;6.32;;;10.70;99.90;;;;;;5030976;28;20044;-67
2022/12/13 07:22:52;;;;;;;13.30;6.80;;;;;;;;;;5041527;28;20048;-68
2022/12/13 07:25:56;;;;;;;12.65;5.90;;;10.60;99.90;;;;;;5031170;28;20057;-69
2022/12/13 07:29:00;;;;;;;15.10;6.30;;;;;;;;;;5031083;28;20044;-69
2022/12/13 07:32:04;;;;;;;11.52;6.38;;;10.60;99.90;;;;;;5029827;28;20045;-68
2022/12/13 07:35:08;;;;;;;9.43;5.80;;;;;;;;;;5030676;28;20060;-71
2022/12/13 07:38:13;;;;;;;14.27;7.15;;;10.80;99.90;;;;;;5031022;28;20049;-68
2022/12/13 07:41:17;;;;;;;11.02;6.90;;;;;;;;;;5030955;28;20044;-68
2022/12/13 07:44:21;;;;;;;12.52;6.88;;;10.70;99.90;;;;;;5031160;28;20507;-68
2022/12/13 07:47:30;;;;;;;10.90;7.13;;;10.50;99.90;;;;;;5030849;28;20396;-69
2022/12/13 07:50:34;;;;;;;14.52;6.60;;;9.40;99.90;;;;;;5030797;28;20508;-69
2022/12/13 07:53:39;;;;;;;9.38;5.60;;;10.30;99.90;;;;;;5030558;28;20044;-66
2022/12/13 07:56:43;;;;;;;11.48;6.35;;;;;;;;;;5030554;28;20052;-70
2022/12/13 07:59:47;;;;;;;9.90;6.45;;;;;;;;;;5030817;28;20041;-71
2022/12/13 08:02:52;;;;;;;16.73;6.05;;;;;;;;;;5032318;28;20041;-72
2022/12/13 08:06:08;;;;;;;11.70;5.93;;;11.10;99.90;;;;;;5045209;28;20399;-69
2022/12/13 08:09:13;;;;;;;12.70;6.13;;;;;;;;;;5034577;28;20040;-68
2022/12/13 08:12:17;;;;;;;12.10;5.18;;;;;;;;;;5034582;28;20049;-69
2022/12/13 08:15:22;;;;;;;6.13;3.55;;;11.10;99.90;;;;;;5034989;28;20054;-69
2022/12/13 08:18:29;;;;;;;11.95;4.00;;;11.00;99.90;;;;;;5034534;28;20041;-69
2022/12/13 08:21:38;;;;;;;9.65;3.67;;;11.40;99.90;;;;;;5034256;28;20049;-69
2022/12/13 08:24:43;;;;;;;7.90;3.20;;;;;;;;;;5034334;28;20048;-70
2022/12/13 08:27:47;;;;;;;9.07;3.00;;;;;;;;;;5033986;28;20033;-73
2022/12/13 08:30:52;;;;;;;7.57;3.45;;;11.40;99.90;;;;;;5033902;28;20053;-68
2022/12/13 08:33:56;;;;;;;7.32;3.28;;;;;;;;;;5033630;28;20049;-72
2022/12/13 08:37:01;;;;;;;9.40;3.42;;;;;;;;;;5033520;28;20041;-68
2022/12/13 08:40:05;;;;;;;13.70;5.15;;;11.60;99.90;;;;;;5033048;28;20489;-69
2022/12/13 08:43:10;;;;;;;9.70;3.85;;;;;;;;;;5033263;28;20499;-69
2022/12/13 08:46:15;;;;;;;6.43;2.40;;;;;;;;;;5033411;28;20041;-69
2022/12/13 08:49:19;;;;;;;10.88;2.97;;;;;;;;;;5034108;28;20045;-69
2022/12/13 08:52:23;;;;;;;5.88;2.60;;;;;;;;;;5033672;28;20057;-70
2022/12/13 08:55:27;;;;;;;3.92;2.33;;;11.90;99.90;;;;;;5033558;28;20045;-69
2022/12/13 08:58:31;;;;;;;5.30;2.45;;;11.80;99.90;;;;;;5033512;28;20048;-67
2022/12/13 09:01:35;;;;;;;5.60;2.35;;;12.20;99.90;;;;;;5033456;28;20052;-69
2022/12/13 09:04:39;;;;;;;6.22;2.53;;;12.90;99.90;;;;;;5033662;28;20434;-69
2022/12/13 09:07:43;;;;;;;5.13;2.58;;;15.00;99.90;;;;;;5033488;28;20036;-69
2022/12/13 09:10:56;;;;;;;5.10;2.78;;;12.20;99.90;;;;;;5033259;28;20057;-69
2022/12/13 09:14:00;;;;;;;4.47;2.85;;;12.20;99.90;;;;;;5033401;28;20232;-67
2022/12/13 09:17:04;;;;;;;8.50;3.15;;;12.00;99.90;;;;;;5033289;28;20049;-70
2022/12/13 09:20:10;;;;;;;5.20;2.30;;;12.10;99.90;;;;;;5033028;28;20069;-71
2022/12/13 09:23:15;;;;;;;11.45;5.40;;;;;;;;;;5033467;28;20116;-70
2022/12/13 09:26:19;;;;;;;9.40;3.03;;;9.50;99.90;;;;;;5033512;28;20046;-70
2022/12/13 09:29:24;;;;;;;5.35;2.63;;;;;;;;;;5033408;28;20038;-71
2022/12/13 09:32:28;;;;;;;6.75;3.20;;;;;;;;;;5033007;28;20041;-71
2022/12/13 09:35:33;;;;;;;9.32;3.67;;;12.40;99.90;;;;;;5033171;28;20033;-70
2022/12/13 09:38:37;;;;;;;7.18;2.90;;;;;;;;;;5032895;28;20049;-69
2022/12/13 09:41:46;;;;;;;7.25;3.22;;;11.60;99.90;;;;;;5032856;28;20033;-69
2022/12/13 09:44:53;;;;;;;5.05;3.15;;;12.60;99.90;;;;;;5032747;28;20049;-67
2022/12/13 09:47:58;;;;;;;12.70;9.57;;;12.60;99.90;;;;;;5033011;28;20053;-68
2022/12/13 09:51:03;;;;;;;17.00;10.10;;;12.60;99.90;;;;;;5032705;28;20057;-70
2022/12/13 09:54:20;;;;;;;23.17;14.50;;;12.70;99.90;;;;;;5032528;28;20052;-70
2022/12/13 09:57:26;;;;;;;21.00;10.77;;;12.60;99.90;;;;;;5032844;28;20530;-69
2022/12/13 10:00:34;;;;;;;13.45;8.30;;;12.70;99.90;;;;;;5032814;28;20041;-71
2022/12/13 10:03:42;;;;;;;11.05;7.20;;;12.70;99.90;;;;;;5032427;28;20044;-73
2022/12/13 10:06:52;;;;;;;15.23;8.68;;;12.80;99.90;;;;;;5032514;28;20048;-68
2022/12/13 10:10:00;;;;;;;10.07;7.32;;;12.80;99.90;;;;;;5032151;28;20061;-68
2022/12/13 10:13:15;;;;;;;5.57;3.78;;;13.10;99.90;;;;;;5032521;28;20056;-68
2022/12/13 10:16:44;;;;;;;5.70;2.55;;;13.50;99.90;;;;;;5032428;28;20060;-68
2022/12/13 10:19:51;;;;;;;3.42;2.42;;;13.70;99.90;;;;;;5032249;28;20048;-68
2022/12/13 10:22:55;;;;;;;3.97;2.22;;;14.00;99.90;;;;;;5032243;28;20056;-69
2022/12/13 10:26:00;;;;;;;5.35;2.15;;;14.00;99.90;;;;;;5031445;28;20585;-70
2022/12/13 10:29:06;;;;;;;3.58;2.30;;;14.10;99.90;;;;;;5033419;28;20052;-68
2022/12/13 10:32:13;;;;;;;4.03;2.38;;;14.20;99.90;;;;;;5031761;28;20056;-68
2022/12/13 10:35:35;;;;;;;2.40;2.08;;;14.30;99.90;;;;;;5032046;28;20044;-68
2022/12/13 10:38:44;;;;;;;3.72;1.90;;;14.30;99.90;;;;;;5032186;28;20048;-67
2022/12/13 10:42:02;;;;;;;3.75;2.38;;;14.40;99.90;;;;;;5031806;28;20052;-66
2022/12/13 10:45:24;;;;;;;3.30;2.13;;;14.40;99.90;;;;;;5031901;28;20056;-68
2022/12/13 10:48:46;;;;;;;4.88;2.35;;;14.30;99.90;;;;;;5031588;28;20528;-69
2022/12/13 10:51:53;;;;;;;3.65;2.78;;;14.40;99.90;;;;;;5030767;28;20402;-70
2022/12/13 10:55:03;;;;;;;3.28;2.55;;;14.40;99.90;;;;;;5031386;28;20049;-68
2022/12/13 10:58:18;;;;;;;3.17;2.50;;;14.40;99.90;;;;;;5031720;28;20068;-66
2022/12/13 11:01:23;;;;;;;2.78;2.17;;;14.40;99.90;;;;;;5031560;28;20041;-69
2022/12/13 11:04:30;;;;;;;3.08;2.40;;;14.40;99.90;;;;;;5031629;28;20036;-70
2022/12/13 11:07:34;;;;;;;3.33;2.35;;;14.40;99.90;;;;;;5031878;28;20295;-70
2022/12/13 11:10:38;;;;;;;3.60;2.78;;;14.50;99.90;;;;;;5031338;28;20385;-67
2022/12/13 11:13:51;;;;;;;3.10;2.40;;;14.50;99.90;;;;;;5031030;28;20049;-69
2022/12/13 11:16:58;;;;;;;3.58;2.67;;;14.60;99.90;;;;;;5031177;28;20389;-67
2022/12/13 11:20:14;;;;;;;3.80;2.67;;;14.70;99.90;;;;;;5031022;28;20036;-68
2022/12/13 11:23:32;;;;;;;2.55;2.30;;;14.90;99.90;;;;;;5031403;28;20052;-69
2022/12/13 11:26:41;;;;;;;4.65;2.60;;;15.00;99.90;;;;;;5031229;28;20069;-71
2022/12/13 11:30:17;;;;;;;2.75;2.20;;;15.00;99.90;;;;;;5030953;28;20612;-71
2022/12/13 11:33:45;;;;;;;2.58;1.80;;;15.00;99.90;;;;;;5026340;28;20052;-70
2022/12/13 11:37:00;;;;;;;2.08;1.73;;;15.10;99.90;;;;;;5029908;28;20045;-71
2022/12/13 11:40:09;;;;;;;2.85;1.65;;;15.10;99.90;;;;;;5031092;28;20040;-69
2022/12/13 11:43:25;;;;;;;2.90;2.00;;;15.10;99.90;;;;;;5030935;28;20061;-72
2022/12/13 11:46:46;;;;;;;3.17;2.35;;;15.10;99.90;;;;;;5031117;28;20052;-69
2022/12/13 11:49:51;;;;;;;4.63;2.05;;;15.10;99.90;;;;;;5031045;28;20052;-70
2022/12/13 11:53:06;;;;;;;3.47;1.83;;;15.10;99.90;;;;;;5030931;28;20052;-70
2022/12/13 11:56:30;;;;;;;2.70;2.20;;;15.20;99.90;;;;;;5030989;28;20052;-68
2022/12/13 12:00:00;;;;;;;3.50;2.10;;;15.10;99.90;;;;;;5030985;28;20401;-68
2022/12/13 12:03:35;;;;;;;3.60;3.03;;;15.10;99.90;;;;;;5033541;28;20415;-69
2022/12/13 12:06:49;;;;;;;3.38;2.40;;;15.20;99.90;;;;;;5030327;28;20049;-68
2022/12/13 12:10:10;;;;;;;4.15;2.63;;;15.10;99.90;;;;;;5030750;28;20047;-68
2022/12/13 12:13:27;;;;;;;3.53;2.80;;;15.20;99.90;;;;;;5030851;28;20058;-66
2022/12/13 12:16:56;;;;;;;4.07;3.15;;;15.20;99.90;;;;;;5030668;28;20044;-69
2022/12/13 12:20:01;;;;;;;8.52;4.50;;;15.10;99.90;;;;;;5030654;28;20053;-68
2022/12/13 12:23:41;;;;;;;11.68;5.70;;;15.10;99.90;;;;;;5030398;28;20048;-69
2022/12/13 12:26:48;;;;;;;10.30;5.88;;;15.00;99.90;;;;;;5030660;28;20052;-69
2022/12/13 12:30:14;;;;;;;16.98;8.38;;;15.00;99.90;;;;;;5030173;28;20109;-68
2022/12/13 12:33:36;;;;;;;9.55;6.22;;;14.90;99.90;;;;;;5030714;28;20052;-69
2022/12/13 12:37:11;;;;;;;17.23;9.10;;;14.90;99.90;;;;;;5030145;28;20048;-70
2022/12/13 12:40:36;;;;;;;17.50;8.20;;;14.90;99.90;;;;;;5030156;28;20389;-70
2022/12/13 12:43:42;;;;;;;17.85;7.95;;;14.90;99.90;;;;;;5030127;28;20044;-70
2022/12/13 12:47:05;;;;;;;11.68;7.28;;;14.90;99.90;;;;;;5030417;28;20052;-71
2022/12/13 12:50:31;;;;;;;15.55;7.82;;;14.90;99.90;;;;;;5033378;28;20393;-70
2022/12/13 12:53:40;;;;;;;15.13;8.45;;;14.90;99.90;;;;;;5033574;28;20397;-70
2022/12/13 12:57:02;;;;;;;11.90;8.10;;;15.00;99.90;;;;;;5033884;28;20048;-68
2022/12/13 13:00:16;;;;;;;13.50;6.78;;;15.00;99.90;;;;;;5033764;28;20044;-67
2022/12/13 13:03:23;;;;;;;11.30;6.47;;;15.00;99.90;;;;;;5032591;28;20057;-67
2022/12/13 13:06:33;;;;;;;8.90;5.70;;;14.90;99.70;;;;;;5033403;28;20045;-69
2022/12/13 13:09:38;;;;;;;11.93;6.55;;;14.80;99.60;;;;;;5033570;28;20112;-68
2022/12/13 13:12:43;;;;;;;9.60;6.32;;;14.80;99.60;;;;;;5033415;28;20496;-68
2022/12/13 13:15:55;;;;;;;15.30;8.00;;;14.80;99.90;;;;;;5033286;28;20036;-68
2022/12/13 13:19:01;;;;;;;19.17;9.98;;;14.80;99.90;;;;;;5033415;28;20045;-68
2022/12/13 13:22:36;;;;;;;13.55;8.38;;;14.80;99.90;;;;;;5033360;28;20052;-68
2022/12/13 13:25:44;;;;;;;16.85;9.98;;;14.80;99.90;;;;;;5032990;28;20060;-68
2022/12/13 13:28:48;;;;;;;18.15;10.40;;;14.80;99.90;;;;;;5033437;28;20037;-68
2022/12/13 13:32:04;;;;;;;18.95;11.45;;;14.90;99.90;;;;;;5033067;28;20045;-67
2022/12/13 13:35:31;;;;;;;26.10;13.85;;;14.90;99.90;;;;;;5033502;28;20056;-67
2022/12/13 13:38:51;;;;;;;19.42;12.82;;;14.90;99.90;;;;;;5032783;28;20044;-68
2022/12/13 13:42:17;;;;;;;22.45;13.32;;;14.90;99.90;;;;;;5032851;28;20056;-69
2022/12/13 13:45:25;;;;;;;21.02;11.45;;;14.90;99.90;;;;;;5033031;28;20499;-68
2022/12/13 13:48:53;;;;;;;19.50;10.85;;;14.90;99.90;;;;;;5033001;28;20043;-69
2022/12/13 13:52:21;;;;;;;37.08;17.52;;;14.90;99.90;;;;;;5032624;28;20064;-69
2022/12/13 13:55:49;;;;;;;23.20;14.40;;;14.90;99.90;;;;;;5032582;28;20060;-69
2022/12/13 13:59:02;;;;;;;21.95;12.93;;;14.80;99.90;;;;;;5032819;28;20096;-69
2022/12/13 14:02:25;;;;;;;28.15;16.65;;;14.80;99.90;;;;;;5032008;28;20044;-69
2022/12/13 14:05:51;;;;;;;22.02;11.95;;;14.80;99.90;;;;;;5032311;28;20048;-69
2022/12/13 14:09:01;;;;;;;22.52;14.15;;;14.70;99.90;;;;;;5032170;28;20044;-69
2022/12/13 14:12:05;;;;;;;37.30;17.50;;;14.70;99.90;;;;;;5032111;28;20417;-69
2022/12/13 14:15:36;;;;;;;26.10;13.00;;;14.60;99.90;;;;;;5032432;28;20385;-69
2022/12/13 14:18:58;;;;;;;17.40;10.75;;;14.60;99.90;;;;;;5032318;28;20504;-68
2022/12/13 14:22:15;;;;;;;21.15;10.27;;;14.60;99.90;;;;;;5032095;28;20056;-68
2022/12/13 14:26:02;;;;;;;20.10;11.18;;;14.50;99.90;;;;;;5032169;28;20389;-68
2022/12/13 14:29:21;;;;;;;23.38;11.95;;;14.50;99.90;;;;;;5031984;28;20044;-68
2022/12/13 14:32:31;;;;;;;18.80;11.57;;;14.50;99.90;;;;;;5032038;28;20056;-68
2022/12/13 14:35:35;;;;;;;29.95;11.85;;;14.40;99.90;;;;;;5032022;28;20394;-69
2022/12/13 14:38:39;;;;;;;26.02;12.02;;;14.40;99.90;;;;;;5031615;28;20518;-68
2022/12/13 14:41:49;;;;;;;22.05;11.88;;;14.30;99.90;;;;;;5031818;28;20504;-68
2022/12/13 14:44:53;;;;;;;23.02;13.20;;;14.30;99.90;;;;;;5030226;28;20040;-68
2022/12/13 14:48:00;;;;;;;19.27;11.85;;;14.30;99.90;;;;;;5031197;28;20049;-70
2022/12/13 14:51:04;;;;;;;21.05;12.35;;;14.20;99.90;;;;;;5031781;28;20064;-68
2022/12/13 14:54:18;;;;;;;21.80;12.38;;;14.20;99.90;;;;;;5031383;28;20620;-69
2022/12/13 14:57:24;;;;;;;22.17;12.40;;;14.10;99.90;;;;;;5031350;28;20037;-72
2022/12/13 15:00:34;;;;;;;23.55;12.57;;;14.10;99.90;;;;;;5030634;28;20492;-72
2022/12/13 15:03:37;;;;;;;23.67;14.82;;;13.90;99.90;;;;;;5031095;28;20499;-71
2022/12/13 15:06:42;;;;;;;29.05;14.85;;;14.00;99.90;;;;;;5031336;28;20049;-70
2022/12/13 15:10:01;;;;;;;27.88;17.20;;;14.00;99.90;;;;;;5031048;28;20392;-70
2022/12/13 15:13:24;;;;;;;32.75;19.20;;;14.30;99.90;;;;;;5030729;28;20061;-69
2022/12/13 15:16:28;;;;;;;26.33;16.35;;;13.90;99.90;;;;;;5030908;28;20041;-70
2022/12/13 15:19:42;;;;;;;28.55;16.42;;;13.90;99.90;;;;;;5030912;28;20452;-69
2022/12/13 15:23:01;;;;;;;26.67;16.27;;;13.80;99.90;;;;;;5031105;28;20053;-68
2022/12/13 15:26:14;;;;;;;37.63;16.92;;;13.80;99.90;;;;;;5030763;28;20048;-69
2022/12/13 15:29:21;;;;;;;29.60;16.55;;;13.80;99.90;;;;;;5030766;28;20044;-70
2022/12/13 15:32:25;;;;;;;27.50;17.45;;;13.80;99.90;;;;;;5030547;28;20061;-71
2022/12/13 15:35:29;;;;;;;32.72;19.63;;;13.80;99.90;;;;;;5030703;28;20044;-67
2022/12/13 15:38:36;;;;;;;31.35;19.30;;;13.70;99.90;;;;;;5029875;28;20068;-70
2022/12/13 15:41:48;;;;;;;34.58;19.23;;;13.70;99.90;;;;;;5030838;28;20068;-71
2022/12/13 15:44:59;;;;;;;22.60;15.38;;;13.60;99.90;;;;;;5030940;28;20044;-70
2022/12/13 15:48:27;;;;;;;27.10;15.90;;;13.50;99.90;;;;;;5030461;28;20075;-70
2022/12/13 15:51:31;;;;;;;34.80;19.25;;;13.40;99.90;;;;;;5030823;28;20481;-71
2022/12/13 15:54:53;;;;;;;33.15;18.67;;;13.70;99.90;;;;;;5030534;28;20520;-67
2022/12/13 15:58:24;;;;;;;28.52;18.55;;;13.20;99.90;;;;;;5030727;28;20056;-67
2022/12/13 16:01:34;;;;;;;37.53;21.48;;;13.30;99.90;;;;;;5030796;28;20049;-69
2022/12/13 16:04:50;;;;;;;43.70;26.55;;;13.20;99.90;;;;;;5030600;28;20048;-73
2022/12/13 16:08:23;;;;;;;41.13;28.35;;;13.20;99.90;;;;;;5030162;28;20053;-66
2022/12/13 16:11:54;;;;;;;34.63;25.17;;;13.30;99.90;;;;;;5030594;28;20520;-69
2022/12/13 16:15:22;;;;;;;32.83;20.20;;;13.20;99.90;;;;;;5030723;28;20040;-69
2022/12/13 16:18:31;;;;;;;31.90;20.08;;;13.30;99.90;;;;;;5030581;28;20120;-71
2022/12/13 16:21:35;;;;;;;25.63;17.00;;;14.30;99.90;;;;;;5030539;28;20040;-70
2022/12/13 16:24:39;;;;;;;31.40;18.77;;;13.30;99.90;;;;;;5033405;28;20053;-70
2022/12/13 16:27:44;;;;;;;29.67;20.38;;;13.30;99.90;;;;;;5034103;28;20040;-70
2022/12/13 16:31:00;;;;;;;24.08;17.20;;;13.30;99.90;;;;;;5033810;28;20048;-70
2022/12/13 16:34:04;;;;;;;27.80;19.42;;;13.30;99.90;;;;;;5034342;28;20057;-71
2022/12/13 16:37:10;;;;;;;37.50;24.27;;;13.30;99.90;;;;;;5033798;28;20045;-70
2022/12/13 16:40:32;;;;;;;43.92;27.95;;;13.20;99.90;;;;;;5033955;28;20044;-69
2022/12/13 16:43:57;;;;;;;34.67;23.85;;;13.20;99.90;;;;;;5033924;28;20052;-71
2022/12/13 16:47:05;;;;;;;36.00;24.48;;;13.60;99.90;;;;;;5034227;28;20041;-69
2022/12/13 16:50:14;;;;;;;38.22;25.73;;;13.30;99.90;;;;;;5034016;28;20048;-68
2022/12/13 16:53:18;;;;;;;42.30;24.83;;;13.30;99.90;;;;;;5033291;28;20412;-67